Flight Track Log - Related Links

Times and Time Zones

All times are in EDT time to prevent confusion due to time zone crossing. See the CSN6288 flight status page for this flight to view local times or setup timezone preferences in your user account.


Time Position Orientation Groundspeed Altitude Reporting Facility
EDT Latitude Longitude Course Direction KTS MPH feet Rate Location/Type
Mon 11:55:00 AM 37.6205 112.6597 169° South  Level Estimated
Mon 11:56:00 AM 37.4941 112.6908 169° South  Level Estimated
Mon 11:57:00 AM 37.3676 112.7218 169° South  Level Estimated
Mon 11:58:00 AM 37.2412 112.7527 169° South  Level Estimated
Mon 11:59:00 AM 37.1148 112.7835 169° South  Level Estimated
Mon 12:00:00 PM 36.9883 112.8142 169° South  Level Estimated
Mon 12:01:00 PM 36.8619 112.8448 169° South  Level Estimated
Mon 12:02:00 PM 36.7354 112.8753 169° South  Level Estimated
Mon 12:03:00 PM 36.6089 112.9057 169° South  Level Estimated
Mon 12:04:00 PM 36.4824 112.9360 169° South  Level Estimated
Mon 12:05:00 PM 36.3559 112.9662 169° South  Level Estimated
Mon 12:06:00 PM 36.2294 112.9963 169° South  Level Estimated
Mon 12:07:00 PM 36.1029 113.0264 169° South  Level Estimated
Mon 12:08:00 PM 35.9764 113.0563 169° South  Level Estimated
Mon 12:09:00 PM 35.8499 113.0861 169° South  Level Estimated
Mon 12:10:00 PM 35.7234 113.1158 169° South  Level Estimated
Mon 12:11:00 PM 35.5968 113.1454 169° South  Level Estimated
Mon 12:12:00 PM 35.4703 113.1750 169° South  Level Estimated
Mon 12:13:00 PM 35.3437 113.2044 169° South  Level Estimated
Mon 12:14:00 PM 35.2172 113.2337 169° South  Level Estimated
Mon 12:15:00 PM 35.0906 113.2630 169° South  Level Estimated
Mon 12:16:00 PM 34.9640 113.2922 169° South  Level Estimated
Mon 12:17:00 PM 34.8375 113.3213 169° South  Level Estimated
Mon 12:18:00 PM 34.7109 113.3503 169° South  Level Estimated
Mon 12:19:00 PM 34.5843 113.3792 169° South  Level Estimated
Mon 12:20:00 PM 34.4577 113.4080 169° South  Level Estimated
Mon 12:21:00 PM 34.3311 113.4367 169° South  Level Estimated
Mon 12:22:00 PM 34.2045 113.4653 169° South  Level Estimated
Mon 12:23:00 PM 34.0779 113.4939 169° South  Level Estimated
Mon 12:24:00 PM 33.9512 113.5223 169° South  Level Estimated
Mon 12:25:00 PM 33.8246 113.5507 169° South  Level Estimated
Mon 12:26:00 PM 33.6980 113.5790 169° South  Level Estimated
Mon 12:27:00 PM 33.5713 113.6072 169° South  Level Estimated
Mon 12:28:00 PM 33.4447 113.6354 169° South  Level Estimated
Mon 12:29:00 PM 33.3180 113.6634 170° South  Level Estimated
Mon 12:30:00 PM 33.1913 113.6914 170° South  Level Estimated
Mon 12:31:00 PM 33.0647 113.7193 170° South  Level Estimated
Mon 12:32:00 PM 32.9380 113.7471 170° South  Level Estimated
Mon 12:33:00 PM 32.8113 113.7748 170° South  Level Estimated
Mon 12:34:00 PM 32.6846 113.8025 170° South  Level Estimated
Mon 12:35:00 PM 32.5579 113.8300 170° South  Level Estimated
Mon 12:36:00 PM 32.4312 113.8575 170° South  Level Estimated
Mon 12:37:00 PM 32.3045 113.8849 170° South  Level Estimated
Mon 12:38:00 PM 32.1778 113.9123 170° South  Level Estimated
Mon 12:39:00 PM 32.0511 113.9396 170° South  Level Estimated
Mon 12:40:00 PM 31.9244 113.9667 170° South  Level Estimated
Mon 12:41:00 PM 31.7976 113.9939 170° South  Level Estimated
Mon 12:42:00 PM 31.6709 114.0209 170° South  Level Estimated
Mon 12:43:00 PM 31.5442 114.0479 170° South  Level Estimated

Login

Don't have an account? Register now (free) for customized features, flight alerts, and more!